sensor_id;sensor_type;location;lat;lon;timestamp;temperature;humidity
9730;DHT22;4904;49.152;11.004;2022-07-29T00:02:05;21.00;99.90
9730;DHT22;4904;49.152;11.004;2022-07-29T00:04:34;20.90;99.90
9730;DHT22;4904;49.152;11.004;2022-07-29T00:07:01;20.90;99.90
9730;DHT22;4904;49.152;11.004;2022-07-29T00:09:30;20.90;99.90
9730;DHT22;4904;49.152;11.004;2022-07-29T00:11:59;20.90;99.90
9730;DHT22;4904;49.152;11.004;2022-07-29T00:14:27;20.90;99.90
9730;DHT22;4904;49.152;11.004;2022-07-29T00:16:54;21.00;99.90
9730;DHT22;4904;49.152;11.004;2022-07-29T00:19:21;21.10;99.90
9730;DHT22;4904;49.152;11.004;2022-07-29T00:21:48;21.20;99.90
9730;DHT22;4904;49.152;11.004;2022-07-29T00:24:15;21.30;99.90
9730;DHT22;4904;49.152;11.004;2022-07-29T00:26:44;21.40;99.90
9730;DHT22;4904;49.152;11.004;2022-07-29T00:29:13;21.40;99.90
9730;DHT22;4904;49.152;11.004;2022-07-29T00:31:40;21.40;99.90
9730;DHT22;4904;49.152;11.004;2022-07-29T00:34:07;21.40;99.90
9730;DHT22;4904;49.152;11.004;2022-07-29T00:36:54;21.40;99.90
9730;DHT22;4904;49.152;11.004;2022-07-29T00:39:20;21.30;99.90
9730;DHT22;4904;49.152;11.004;2022-07-29T00:41:48;21.30;99.90
9730;DHT22;4904;49.152;11.004;2022-07-29T00:44:16;21.30;99.90
9730;DHT22;4904;49.152;11.004;2022-07-29T00:46:43;21.10;99.90
9730;DHT22;4904;49.152;11.004;2022-07-29T00:49:10;21.00;99.90
9730;DHT22;4904;49.152;11.004;2022-07-29T00:51:37;21.10;99.90
9730;DHT22;4904;49.152;11.004;2022-07-29T00:54:05;21.10;99.90
9730;DHT22;4904;49.152;11.004;2022-07-29T00:56:33;21.10;99.90
9730;DHT22;4904;49.152;11.004;2022-07-29T00:59:01;21.10;99.90
9730;DHT22;4904;49.152;11.004;2022-07-29T01:01:28;21.20;99.90
9730;DHT22;4904;49.152;11.004;2022-07-29T01:03:55;21.20;99.90
9730;DHT22;4904;49.152;11.004;2022-07-29T01:06:23;21.30;99.90
9730;DHT22;4904;49.152;11.004;2022-07-29T01:08:51;21.40;99.90
9730;DHT22;4904;49.152;11.004;2022-07-29T01:11:19;21.40;99.90
9730;DHT22;4904;49.152;11.004;2022-07-29T01:13:47;21.40;99.90
9730;DHT22;4904;49.152;11.004;2022-07-29T01:16:25;21.40;99.90
9730;DHT22;4904;49.152;11.004;2022-07-29T01:18:55;21.30;99.90
9730;DHT22;4904;49.152;11.004;2022-07-29T01:21:50;21.30;99.90
9730;DHT22;4904;49.152;11.004;2022-07-29T01:24:34;21.20;99.90
9730;DHT22;4904;49.152;11.004;2022-07-29T01:27:12;21.30;99.90
9730;DHT22;4904;49.152;11.004;2022-07-29T01:29:49;21.30;99.90
9730;DHT22;4904;49.152;11.004;2022-07-29T01:32:22;21.20;99.90
9730;DHT22;4904;49.152;11.004;2022-07-29T01:34:54;21.30;99.90
9730;DHT22;4904;49.152;11.004;2022-07-29T01:37:26;21.20;99.90
9730;DHT22;4904;49.152;11.004;2022-07-29T01:39:57;21.20;99.90
9730;DHT22;4904;49.152;11.004;2022-07-29T01:42:32;21.20;99.90
9730;DHT22;4904;49.152;11.004;2022-07-29T01:45:08;21.10;99.90
9730;DHT22;4904;49.152;11.004;2022-07-29T01:47:40;21.00;99.90
9730;DHT22;4904;49.152;11.004;2022-07-29T01:50:12;20.90;99.90
9730;DHT22;4904;49.152;11.004;2022-07-29T01:52:49;20.80;99.90
9730;DHT22;4904;49.152;11.004;2022-07-29T01:55:20;20.80;99.90
9730;DHT22;4904;49.152;11.004;2022-07-29T01:57:49;20.70;99.90
9730;DHT22;4904;49.152;11.004;2022-07-29T02:00:17;20.70;99.90
9730;DHT22;4904;49.152;11.004;2022-07-29T02:02:47;20.70;99.90
9730;DHT22;4904;49.152;11.004;2022-07-29T02:05:17;20.70;99.90
9730;DHT22;4904;49.152;11.004;2022-07-29T02:07:47;20.70;99.90
9730;DHT22;4904;49.152;11.004;2022-07-29T02:10:15;20.70;99.90
9730;DHT22;4904;49.152;11.004;2022-07-29T02:12:44;20.60;99.90
9730;DHT22;4904;49.152;11.004;2022-07-29T02:15:13;20.70;99.90
9730;DHT22;4904;49.152;11.004;2022-07-29T02:17:45;20.70;99.90
9730;DHT22;4904;49.152;11.004;2022-07-29T02:20:16;20.70;99.90
9730;DHT22;4904;49.152;11.004;2022-07-29T02:22:44;20.70;99.90
9730;DHT22;4904;49.152;11.004;2022-07-29T02:25:12;20.60;99.90
9730;DHT22;4904;49.152;11.004;2022-07-29T02:27:41;20.60;99.90
9730;DHT22;4904;49.152;11.004;2022-07-29T02:30:09;20.50;99.90
9730;DHT22;4904;49.152;11.004;2022-07-29T02:32:39;20.60;99.90
9730;DHT22;4904;49.152;11.004;2022-07-29T02:35:09;20.60;99.90
9730;DHT22;4904;49.152;11.004;2022-07-29T02:37:37;20.60;99.90
9730;DHT22;4904;49.152;11.004;2022-07-29T02:40:07;20.50;99.90
9730;DHT22;4904;49.152;11.004;2022-07-29T02:42:36;20.40;99.90
9730;DHT22;4904;49.152;11.004;2022-07-29T02:45:05;20.40;99.90
9730;DHT22;4904;49.152;11.004;2022-07-29T02:47:36;20.40;99.90
9730;DHT22;4904;49.152;11.004;2022-07-29T02:50:08;20.40;99.90
9730;DHT22;4904;49.152;11.004;2022-07-29T02:52:41;20.30;99.90
9730;DHT22;4904;49.152;11.004;2022-07-29T02:55:15;20.40;99.90
9730;DHT22;4904;49.152;11.004;2022-07-29T02:57:46;20.40;99.90
9730;DHT22;4904;49.152;11.004;2022-07-29T03:00:15;20.40;99.90
9730;DHT22;4904;49.152;11.004;2022-07-29T03:02:44;20.40;99.90
9730;DHT22;4904;49.152;11.004;2022-07-29T03:05:16;20.30;99.90
9730;DHT22;4904;49.152;11.004;2022-07-29T03:07:46;20.30;99.90
9730;DHT22;4904;49.152;11.004;2022-07-29T03:10:14;20.30;99.90
9730;DHT22;4904;49.152;11.004;2022-07-29T03:12:41;20.30;99.90
9730;DHT22;4904;49.152;11.004;2022-07-29T03:15:10;20.40;99.90
9730;DHT22;4904;49.152;11.004;2022-07-29T03:17:38;20.40;99.90
9730;DHT22;4904;49.152;11.004;2022-07-29T03:20:09;20.30;99.90
9730;DHT22;4904;49.152;11.004;2022-07-29T03:22:40;20.20;99.90
9730;DHT22;4904;49.152;11.004;2022-07-29T03:25:10;19.90;99.90
9730;DHT22;4904;49.152;11.004;2022-07-29T03:27:37;19.70;99.90
9730;DHT22;4904;49.152;11.004;2022-07-29T03:30:05;19.60;99.90
9730;DHT22;4904;49.152;11.004;2022-07-29T03:32:32;19.60;99.90
9730;DHT22;4904;49.152;11.004;2022-07-29T03:35:00;19.50;99.90
9730;DHT22;4904;49.152;11.004;2022-07-29T03:37:27;19.30;99.90
9730;DHT22;4904;49.152;11.004;2022-07-29T03:39:58;19.40;99.90
9730;DHT22;4904;49.152;11.004;2022-07-29T03:42:27;19.40;99.90
9730;DHT22;4904;49.152;11.004;2022-07-29T03:44:55;19.50;99.90
9730;DHT22;4904;49.152;11.004;2022-07-29T03:47:26;19.40;99.90
9730;DHT22;4904;49.152;11.004;2022-07-29T03:49:56;19.50;99.90
9730;DHT22;4904;49.152;11.004;2022-07-29T03:52:26;19.50;99.90
9730;DHT22;4904;49.152;11.004;2022-07-29T03:54:53;19.50;99.90
9730;DHT22;4904;49.152;11.004;2022-07-29T03:57:24;19.50;99.90
9730;DHT22;4904;49.152;11.004;2022-07-29T03:59:52;19.60;99.90
9730;DHT22;4904;49.152;11.004;2022-07-29T04:02:20;19.60;99.90
9730;DHT22;4904;49.152;11.004;2022-07-29T04:04:48;19.60;99.90
9730;DHT22;4904;49.152;11.004;2022-07-29T04:07:15;19.50;99.90
9730;DHT22;4904;49.152;11.004;2022-07-29T04:09:43;19.50;99.90
9730;DHT22;4904;49.152;11.004;2022-07-29T04:12:10;19.40;99.90
9730;DHT22;4904;49.152;11.004;2022-07-29T04:14:38;19.30;99.90
9730;DHT22;4904;49.152;11.004;2022-07-29T04:17:05;19.10;99.90
9730;DHT22;4904;49.152;11.004;2022-07-29T04:19:33;19.00;99.90
9730;DHT22;4904;49.152;11.004;2022-07-29T04:22:00;19.00;99.90
9730;DHT22;4904;49.152;11.004;2022-07-29T04:24:27;19.00;99.90
9730;DHT22;4904;49.152;11.004;2022-07-29T04:26:54;19.00;99.90
9730;DHT22;4904;49.152;11.004;2022-07-29T04:29:21;18.80;99.90
9730;DHT22;4904;49.152;11.004;2022-07-29T04:31:50;18.60;99.90
9730;DHT22;4904;49.152;11.004;2022-07-29T04:34:17;18.60;99.90
9730;DHT22;4904;49.152;11.004;2022-07-29T04:36:44;18.70;99.90
9730;DHT22;4904;49.152;11.004;2022-07-29T04:39:11;18.80;99.90
9730;DHT22;4904;49.152;11.004;2022-07-29T04:41:38;18.90;99.90
9730;DHT22;4904;49.152;11.004;2022-07-29T04:44:05;18.60;99.90
9730;DHT22;4904;49.152;11.004;2022-07-29T04:46:32;18.60;99.90
9730;DHT22;4904;49.152;11.004;2022-07-29T04:49:03;18.70;99.90
9730;DHT22;4904;49.152;11.004;2022-07-29T04:51:30;18.80;99.90
9730;DHT22;4904;49.152;11.004;2022-07-29T04:53:57;18.90;99.90
9730;DHT22;4904;49.152;11.004;2022-07-29T04:56:24;19.00;99.90
9730;DHT22;4904;49.152;11.004;2022-07-29T04:58:51;19.00;99.90
9730;DHT22;4904;49.152;11.004;2022-07-29T05:01:19;18.80;99.90
9730;DHT22;4904;49.152;11.004;2022-07-29T05:03:46;18.40;99.90
9730;DHT22;4904;49.152;11.004;2022-07-29T05:06:16;18.40;99.90
9730;DHT22;4904;49.152;11.004;2022-07-29T05:08:43;18.50;99.90
9730;DHT22;4904;49.152;11.004;2022-07-29T05:11:10;18.40;99.90
9730;DHT22;4904;49.152;11.004;2022-07-29T05:13:37;18.50;99.90
9730;DHT22;4904;49.152;11.004;2022-07-29T05:16:05;18.80;99.90
9730;DHT22;4904;49.152;11.004;2022-07-29T05:18:32;18.90;99.90
9730;DHT22;4904;49.152;11.004;2022-07-29T05:20:59;19.10;99.90
9730;DHT22;4904;49.152;11.004;2022-07-29T05:23:27;19.20;99.90
9730;DHT22;4904;49.152;11.004;2022-07-29T05:25:54;19.40;99.90
9730;DHT22;4904;49.152;11.004;2022-07-29T05:28:21;19.50;99.90
9730;DHT22;4904;49.152;11.004;2022-07-29T05:30:48;19.60;99.90
9730;DHT22;4904;49.152;11.004;2022-07-29T05:33:15;19.70;99.90
9730;DHT22;4904;49.152;11.004;2022-07-29T05:35:42;19.80;99.90
9730;DHT22;4904;49.152;11.004;2022-07-29T05:38:09;19.90;99.90
9730;DHT22;4904;49.152;11.004;2022-07-29T05:40:37;20.00;99.90
9730;DHT22;4904;49.152;11.004;2022-07-29T05:43:04;20.20;99.90
9730;DHT22;4904;49.152;11.004;2022-07-29T05:45:31;20.30;99.90
9730;DHT22;4904;49.152;11.004;2022-07-29T05:47:59;20.40;99.90
9730;DHT22;4904;49.152;11.004;2022-07-29T05:50:25;20.50;99.90
9730;DHT22;4904;49.152;11.004;2022-07-29T05:52:52;20.70;99.90
9730;DHT22;4904;49.152;11.004;2022-07-29T05:55:19;20.60;99.90
9730;DHT22;4904;49.152;11.004;2022-07-29T05:57:48;20.60;99.90
9730;DHT22;4904;49.152;11.004;2022-07-29T06:00:15;20.80;99.90
9730;DHT22;4904;49.152;11.004;2022-07-29T06:02:43;20.90;99.90
9730;DHT22;4904;49.152;11.004;2022-07-29T06:05:09;20.90;99.90
9730;DHT22;4904;49.152;11.004;2022-07-29T06:07:37;21.20;99.90
9730;DHT22;4904;49.152;11.004;2022-07-29T06:10:04;21.40;99.90
9730;DHT22;4904;49.152;11.004;2022-07-29T06:12:31;21.40;99.90
9730;DHT22;4904;49.152;11.004;2022-07-29T06:15:00;21.50;99.90
9730;DHT22;4904;49.152;11.004;2022-07-29T06:17:27;21.60;99.90
9730;DHT22;4904;49.152;11.004;2022-07-29T06:19:54;21.80;99.90
9730;DHT22;4904;49.152;11.004;2022-07-29T06:22:21;22.00;99.90
9730;DHT22;4904;49.152;11.004;2022-07-29T06:24:48;22.10;99.90
9730;DHT22;4904;49.152;11.004;2022-07-29T06:27:15;22.10;99.90
9730;DHT22;4904;49.152;11.004;2022-07-29T06:29:42;22.20;99.90
9730;DHT22;4904;49.152;11.004;2022-07-29T06:32:10;22.40;99.90
9730;DHT22;4904;49.152;11.004;2022-07-29T06:34:37;22.30;99.90
9730;DHT22;4904;49.152;11.004;2022-07-29T06:37:07;22.40;99.90
9730;DHT22;4904;49.152;11.004;2022-07-29T06:39:35;22.50;99.90
9730;DHT22;4904;49.152;11.004;2022-07-29T06:42:03;22.50;99.90
9730;DHT22;4904;49.152;11.004;2022-07-29T06:44:30;22.40;99.90
9730;DHT22;4904;49.152;11.004;2022-07-29T06:46:59;22.50;99.90
9730;DHT22;4904;49.152;11.004;2022-07-29T06:49:27;22.60;99.90
9730;DHT22;4904;49.152;11.004;2022-07-29T06:51:54;22.80;99.90
9730;DHT22;4904;49.152;11.004;2022-07-29T06:54:21;22.90;99.90
9730;DHT22;4904;49.152;11.004;2022-07-29T06:56:48;23.00;99.90
9730;DHT22;4904;49.152;11.004;2022-07-29T06:59:30;23.10;99.90
9730;DHT22;4904;49.152;11.004;2022-07-29T07:02:13;23.30;99.90
9730;DHT22;4904;49.152;11.004;2022-07-29T07:04:42;23.50;99.90
9730;DHT22;4904;49.152;11.004;2022-07-29T07:07:09;23.70;99.90
9730;DHT22;4904;49.152;11.004;2022-07-29T07:09:35;23.60;99.90
9730;DHT22;4904;49.152;11.004;2022-07-29T07:12:03;23.80;99.90
9730;DHT22;4904;49.152;11.004;2022-07-29T07:14:30;24.00;99.90
9730;DHT22;4904;49.152;11.004;2022-07-29T07:16:57;24.20;99.90
9730;DHT22;4904;49.152;11.004;2022-07-29T07:19:25;24.30;99.90
9730;DHT22;4904;49.152;11.004;2022-07-29T07:21:54;24.50;99.90
9730;DHT22;4904;49.152;11.004;2022-07-29T07:24:21;24.70;99.90
9730;DHT22;4904;49.152;11.004;2022-07-29T07:26:48;24.80;99.90
9730;DHT22;4904;49.152;11.004;2022-07-29T07:29:15;24.80;99.90
9730;DHT22;4904;49.152;11.004;2022-07-29T07:31:42;24.90;99.90
9730;DHT22;4904;49.152;11.004;2022-07-29T07:34:09;25.00;99.90
9730;DHT22;4904;49.152;11.004;2022-07-29T07:36:36;25.00;99.90
9730;DHT22;4904;49.152;11.004;2022-07-29T07:39:04;24.90;99.90
9730;DHT22;4904;49.152;11.004;2022-07-29T07:41:31;24.90;99.90
9730;DHT22;4904;49.152;11.004;2022-07-29T07:43:58;24.90;99.90
9730;DHT22;4904;49.152;11.004;2022-07-29T07:46:25;25.00;99.90
9730;DHT22;4904;49.152;11.004;2022-07-29T07:48:53;25.10;99.90
9730;DHT22;4904;49.152;11.004;2022-07-29T07:51:20;25.10;99.90
9730;DHT22;4904;49.152;11.004;2022-07-29T07:53:47;25.20;99.90
9730;DHT22;4904;49.152;11.004;2022-07-29T07:56:16;24.90;99.90
9730;DHT22;4904;49.152;11.004;2022-07-29T07:58:43;24.90;99.90
9730;DHT22;4904;49.152;11.004;2022-07-29T08:01:10;24.80;99.90
9730;DHT22;4904;49.152;11.004;2022-07-29T08:03:38;24.80;99.90
9730;DHT22;4904;49.152;11.004;2022-07-29T08:06:05;24.80;99.90
9730;DHT22;4904;49.152;11.004;2022-07-29T08:08:32;24.80;99.90
9730;DHT22;4904;49.152;11.004;2022-07-29T08:10:59;24.80;99.90
9730;DHT22;4904;49.152;11.004;2022-07-29T08:13:29;24.80;99.90
9730;DHT22;4904;49.152;11.004;2022-07-29T08:15:57;24.80;99.90
9730;DHT22;4904;49.152;11.004;2022-07-29T08:18:26;24.90;99.90
9730;DHT22;4904;49.152;11.004;2022-07-29T08:20:53;24.80;99.90
9730;DHT22;4904;49.152;11.004;2022-07-29T08:23:20;24.90;99.90
9730;DHT22;4904;49.152;11.004;2022-07-29T08:25:48;24.80;99.90
9730;DHT22;4904;49.152;11.004;2022-07-29T08:28:15;24.90;99.90
9730;DHT22;4904;49.152;11.004;2022-07-29T08:30:44;25.00;99.90
9730;DHT22;4904;49.152;11.004;2022-07-29T08:33:11;25.00;99.90
9730;DHT22;4904;49.152;11.004;2022-07-29T08:35:39;25.10;99.90
9730;DHT22;4904;49.152;11.004;2022-07-29T08:38:06;25.10;99.90
9730;DHT22;4904;49.152;11.004;2022-07-29T08:40:33;25.20;99.90
9730;DHT22;4904;49.152;11.004;2022-07-29T08:43:04;25.20;99.90
9730;DHT22;4904;49.152;11.004;2022-07-29T08:45:39;25.20;99.90
9730;DHT22;4904;49.152;11.004;2022-07-29T08:48:09;25.20;99.90
9730;DHT22;4904;49.152;11.004;2022-07-29T08:50:37;25.20;99.90
9730;DHT22;4904;49.152;11.004;2022-07-29T08:53:05;25.30;99.90
9730;DHT22;4904;49.152;11.004;2022-07-29T08:55:33;25.40;99.90
9730;DHT22;4904;49.152;11.004;2022-07-29T08:58:01;25.50;99.90
9730;DHT22;4904;49.152;11.004;2022-07-29T09:00:28;25.70;99.90
9730;DHT22;4904;49.152;11.004;2022-07-29T09:02:57;25.90;99.90
9730;DHT22;4904;49.152;11.004;2022-07-29T09:05:27;25.90;99.90
9730;DHT22;4904;49.152;11.004;2022-07-29T09:07:55;26.00;99.90
9730;DHT22;4904;49.152;11.004;2022-07-29T09:10:22;26.00;99.90
9730;DHT22;4904;49.152;11.004;2022-07-29T09:12:49;26.10;99.90
9730;DHT22;4904;49.152;11.004;2022-07-29T09:15:17;26.30;99.90
9730;DHT22;4904;49.152;11.004;2022-07-29T09:17:46;26.40;99.90
9730;DHT22;4904;49.152;11.004;2022-07-29T09:20:15;26.40;99.90
9730;DHT22;4904;49.152;11.004;2022-07-29T09:22:43;26.50;99.90
9730;DHT22;4904;49.152;11.004;2022-07-29T09:25:12;26.60;99.90
9730;DHT22;4904;49.152;11.004;2022-07-29T09:27:40;26.50;99.90
9730;DHT22;4904;49.152;11.004;2022-07-29T09:30:08;26.50;99.90
9730;DHT22;4904;49.152;11.004;2022-07-29T09:32:54;26.70;99.90
9730;DHT22;4904;49.152;11.004;2022-07-29T09:35:23;26.80;99.90
9730;DHT22;4904;49.152;11.004;2022-07-29T09:37:52;26.90;99.90
9730;DHT22;4904;49.152;11.004;2022-07-29T09:40:22;26.90;99.90
9730;DHT22;4904;49.152;11.004;2022-07-29T09:42:51;26.90;99.90
9730;DHT22;4904;49.152;11.004;2022-07-29T09:45:29;27.00;99.90
9730;DHT22;4904;49.152;11.004;2022-07-29T09:47:56;27.20;99.90
9730;DHT22;4904;49.152;11.004;2022-07-29T09:50:35;27.40;99.90
9730;DHT22;4904;49.152;11.004;2022-07-29T09:53:04;27.30;99.90
9730;DHT22;4904;49.152;11.004;2022-07-29T09:55:31;27.30;99.90
9730;DHT22;4904;49.152;11.004;2022-07-29T09:58:16;27.30;99.90
9730;DHT22;4904;49.152;11.004;2022-07-29T10:00:45;27.10;99.90
9730;DHT22;4904;49.152;11.004;2022-07-29T10:03:13;27.20;99.90
9730;DHT22;4904;49.152;11.004;2022-07-29T10:05:41;27.30;99.90
9730;DHT22;4904;49.152;11.004;2022-07-29T10:08:11;27.20;99.90
9730;DHT22;4904;49.152;11.004;2022-07-29T10:10:40;27.30;99.90
9730;DHT22;4904;49.152;11.004;2022-07-29T10:13:09;27.30;99.90
9730;DHT22;4904;49.152;11.004;2022-07-29T10:15:39;27.30;99.90
9730;DHT22;4904;49.152;11.004;2022-07-29T10:18:10;27.30;99.90
9730;DHT22;4904;49.152;11.004;2022-07-29T10:20:39;27.40;99.90
9730;DHT22;4904;49.152;11.004;2022-07-29T10:23:06;27.60;99.90
9730;DHT22;4904;49.152;11.004;2022-07-29T10:25:35;27.70;99.90
9730;DHT22;4904;49.152;11.004;2022-07-29T10:28:02;27.70;99.90
9730;DHT22;4904;49.152;11.004;2022-07-29T10:30:29;27.60;99.90
9730;DHT22;4904;49.152;11.004;2022-07-29T10:33:18;27.40;99.90
9730;DHT22;4904;49.152;11.004;2022-07-29T10:36:00;27.20;99.90
9730;DHT22;4904;49.152;11.004;2022-07-29T10:38:51;27.10;99.90
9730;DHT22;4904;49.152;11.004;2022-07-29T10:41:39;27.00;99.90
9730;DHT22;4904;49.152;11.004;2022-07-29T10:44:17;27.20;99.90
9730;DHT22;4904;49.152;11.004;2022-07-29T10:46:45;27.60;99.90
9730;DHT22;4904;49.152;11.004;2022-07-29T10:49:13;27.90;99.90
9730;DHT22;4904;49.152;11.004;2022-07-29T10:52:01;28.20;99.90
9730;DHT22;4904;49.152;11.004;2022-07-29T10:54:43;28.50;99.90
9730;DHT22;4904;49.152;11.004;2022-07-29T10:57:14;28.40;99.90
9730;DHT22;4904;49.152;11.004;2022-07-29T10:59:42;28.50;99.90
9730;DHT22;4904;49.152;11.004;2022-07-29T11:02:42;28.60;99.90
9730;DHT22;4904;49.152;11.004;2022-07-29T11:05:11;28.90;99.90
9730;DHT22;4904;49.152;11.004;2022-07-29T11:07:40;29.10;99.90
9730;DHT22;4904;49.152;11.004;2022-07-29T11:10:26;29.40;99.90
9730;DHT22;4904;49.152;11.004;2022-07-29T11:12:54;29.60;99.90
9730;DHT22;4904;49.152;11.004;2022-07-29T11:15:22;29.50;99.90
9730;DHT22;4904;49.152;11.004;2022-07-29T11:18:08;29.50;99.90
9730;DHT22;4904;49.152;11.004;2022-07-29T11:20:38;29.50;99.90
9730;DHT22;4904;49.152;11.004;2022-07-29T11:23:22;29.60;99.90
9730;DHT22;4904;49.152;11.004;2022-07-29T11:26:18;29.50;99.90
9730;DHT22;4904;49.152;11.004;2022-07-29T11:28:59;29.70;99.90
9730;DHT22;4904;49.152;11.004;2022-07-29T11:31:36;29.30;99.90
9730;DHT22;4904;49.152;11.004;2022-07-29T11:34:21;29.20;99.90
9730;DHT22;4904;49.152;11.004;2022-07-29T11:37:17;28.80;99.90
9730;DHT22;4904;49.152;11.004;2022-07-29T11:39:46;28.80;99.90
9730;DHT22;4904;49.152;11.004;2022-07-29T11:42:38;28.70;99.90
9730;DHT22;4904;49.152;11.004;2022-07-29T11:45:11;28.80;99.90
9730;DHT22;4904;49.152;11.004;2022-07-29T11:47:40;28.70;99.90
9730;DHT22;4904;49.152;11.004;2022-07-29T11:50:09;28.70;99.90
9730;DHT22;4904;49.152;11.004;2022-07-29T11:52:38;28.60;99.90
9730;DHT22;4904;49.152;11.004;2022-07-29T11:55:12;28.50;99.90
9730;DHT22;4904;49.152;11.004;2022-07-29T11:57:46;28.30;99.90
9730;DHT22;4904;49.152;11.004;2022-07-29T12:00:28;28.20;99.90
9730;DHT22;4904;49.152;11.004;2022-07-29T12:02:56;28.00;99.90
9730;DHT22;4904;49.152;11.004;2022-07-29T12:05:33;27.90;99.90
9730;DHT22;4904;49.152;11.004;2022-07-29T12:08:08;27.60;99.90
9730;DHT22;4904;49.152;11.004;2022-07-29T12:10:36;27.40;99.90
9730;DHT22;4904;49.152;11.004;2022-07-29T12:13:03;27.30;99.90
9730;DHT22;4904;49.152;11.004;2022-07-29T12:15:32;27.20;99.90
9730;DHT22;4904;49.152;11.004;2022-07-29T12:17:59;27.00;99.90
9730;DHT22;4904;49.152;11.004;2022-07-29T12:20:35;26.50;99.90
9730;DHT22;4904;49.152;11.004;2022-07-29T12:23:05;26.00;99.90
9730;DHT22;4904;49.152;11.004;2022-07-29T12:25:34;25.80;99.90
9730;DHT22;4904;49.152;11.004;2022-07-29T12:28:03;25.80;99.90
9730;DHT22;4904;49.152;11.004;2022-07-29T12:30:43;25.80;99.90
9730;DHT22;4904;49.152;11.004;2022-07-29T12:33:19;25.70;99.90
9730;DHT22;4904;49.152;11.004;2022-07-29T12:35:49;25.70;99.90
9730;DHT22;4904;49.152;11.004;2022-07-29T12:38:17;25.80;99.90
9730;DHT22;4904;49.152;11.004;2022-07-29T12:40:46;25.80;99.90
9730;DHT22;4904;49.152;11.004;2022-07-29T12:43:15;25.80;99.90
9730;DHT22;4904;49.152;11.004;2022-07-29T12:45:46;25.80;99.90
9730;DHT22;4904;49.152;11.004;2022-07-29T12:48:13;25.90;99.90
9730;DHT22;4904;49.152;11.004;2022-07-29T12:50:55;25.90;99.90
9730;DHT22;4904;49.152;11.004;2022-07-29T12:53:22;25.80;99.90
9730;DHT22;4904;49.152;11.004;2022-07-29T12:55:51;25.60;99.90
9730;DHT22;4904;49.152;11.004;2022-07-29T12:58:32;25.50;99.90
9730;DHT22;4904;49.152;11.004;2022-07-29T13:01:09;25.40;99.90
9730;DHT22;4904;49.152;11.004;2022-07-29T13:03:49;25.30;99.90
9730;DHT22;4904;49.152;11.004;2022-07-29T13:06:35;25.10;99.90
9730;DHT22;4904;49.152;11.004;2022-07-29T13:09:10;25.10;99.90
9730;DHT22;4904;49.152;11.004;2022-07-29T13:11:40;25.10;99.90
9730;DHT22;4904;49.152;11.004;2022-07-29T13:14:08;25.00;99.90
9730;DHT22;4904;49.152;11.004;2022-07-29T13:16:59;24.60;99.90
9730;DHT22;4904;49.152;11.004;2022-07-29T13:19:34;24.40;99.90
9730;DHT22;4904;49.152;11.004;2022-07-29T13:22:01;24.20;99.90
9730;DHT22;4904;49.152;11.004;2022-07-29T13:24:28;24.00;99.90
9730;DHT22;4904;49.152;11.004;2022-07-29T13:26:55;24.10;99.90
9730;DHT22;4904;49.152;11.004;2022-07-29T13:29:22;24.20;99.90
9730;DHT22;4904;49.152;11.004;2022-07-29T13:31:50;24.20;99.90
9730;DHT22;4904;49.152;11.004;2022-07-29T13:34:17;24.40;99.90
9730;DHT22;4904;49.152;11.004;2022-07-29T13:36:45;24.60;99.90
9730;DHT22;4904;49.152;11.004;2022-07-29T13:39:12;24.40;99.90
9730;DHT22;4904;49.152;11.004;2022-07-29T13:41:39;24.50;99.90
9730;DHT22;4904;49.152;11.004;2022-07-29T13:44:06;24.70;99.90
9730;DHT22;4904;49.152;11.004;2022-07-29T13:46:33;24.90;99.90
9730;DHT22;4904;49.152;11.004;2022-07-29T13:49:01;25.00;99.90
9730;DHT22;4904;49.152;11.004;2022-07-29T13:51:28;25.10;99.90
9730;DHT22;4904;49.152;11.004;2022-07-29T13:53:55;25.10;99.90
9730;DHT22;4904;49.152;11.004;2022-07-29T13:56:22;25.20;99.90
9730;DHT22;4904;49.152;11.004;2022-07-29T13:58:49;25.20;99.90
9730;DHT22;4904;49.152;11.004;2022-07-29T14:01:16;25.40;99.90
9730;DHT22;4904;49.152;11.004;2022-07-29T14:03:43;25.50;99.90
9730;DHT22;4904;49.152;11.004;2022-07-29T14:06:11;25.50;99.90
9730;DHT22;4904;49.152;11.004;2022-07-29T14:08:38;25.70;99.90
9730;DHT22;4904;49.152;11.004;2022-07-29T14:11:05;25.70;99.90
9730;DHT22;4904;49.152;11.004;2022-07-29T14:13:32;25.90;99.90
9730;DHT22;4904;49.152;11.004;2022-07-29T14:15:59;26.10;99.90
9730;DHT22;4904;49.152;11.004;2022-07-29T14:18:26;26.40;99.90
9730;DHT22;4904;49.152;11.004;2022-07-29T14:20:53;26.60;99.90
9730;DHT22;4904;49.152;11.004;2022-07-29T14:23:22;26.60;99.90
9730;DHT22;4904;49.152;11.004;2022-07-29T14:25:49;26.50;99.90
9730;DHT22;4904;49.152;11.004;2022-07-29T14:28:16;26.40;99.90
9730;DHT22;4904;49.152;11.004;2022-07-29T14:30:43;26.40;99.90
9730;DHT22;4904;49.152;11.004;2022-07-29T14:33:10;26.40;99.90
9730;DHT22;4904;49.152;11.004;2022-07-29T14:35:37;26.40;99.90
9730;DHT22;4904;49.152;11.004;2022-07-29T14:38:04;26.40;99.90
9730;DHT22;4904;49.152;11.004;2022-07-29T14:40:33;26.30;99.90
9730;DHT22;4904;49.152;11.004;2022-07-29T14:43:00;26.30;99.90
9730;DHT22;4904;49.152;11.004;2022-07-29T14:45:27;26.30;99.90
9730;DHT22;4904;49.152;11.004;2022-07-29T14:47:54;26.50;99.90
9730;DHT22;4904;49.152;11.004;2022-07-29T14:50:21;26.70;99.90
9730;DHT22;4904;49.152;11.004;2022-07-29T14:52:48;26.70;99.90
9730;DHT22;4904;49.152;11.004;2022-07-29T14:55:15;26.80;99.90
9730;DHT22;4904;49.152;11.004;2022-07-29T14:57:44;26.80;99.90
9730;DHT22;4904;49.152;11.004;2022-07-29T15:00:12;26.90;99.90
9730;DHT22;4904;49.152;11.004;2022-07-29T15:02:39;27.10;99.90
9730;DHT22;4904;49.152;11.004;2022-07-29T15:05:06;27.20;99.90
9730;DHT22;4904;49.152;11.004;2022-07-29T15:07:33;27.10;99.90
9730;DHT22;4904;49.152;11.004;2022-07-29T15:10:00;27.10;99.90
9730;DHT22;4904;49.152;11.004;2022-07-29T15:12:27;27.20;99.90
9730;DHT22;4904;49.152;11.004;2022-07-29T15:14:56;27.10;99.90
9730;DHT22;4904;49.152;11.004;2022-07-29T15:17:23;27.00;99.90
9730;DHT22;4904;49.152;11.004;2022-07-29T15:19:50;27.00;99.90
9730;DHT22;4904;49.152;11.004;2022-07-29T15:22:17;26.80;99.90
9730;DHT22;4904;49.152;11.004;2022-07-29T15:24:44;26.70;99.90
9730;DHT22;4904;49.152;11.004;2022-07-29T15:27:11;26.50;99.90
9730;DHT22;4904;49.152;11.004;2022-07-29T15:29:39;26.50;99.90
9730;DHT22;4904;49.152;11.004;2022-07-29T15:32:08;26.50;99.90
9730;DHT22;4904;49.152;11.004;2022-07-29T15:34:35;26.40;99.90
9730;DHT22;4904;49.152;11.004;2022-07-29T15:37:02;26.50;99.90
9730;DHT22;4904;49.152;11.004;2022-07-29T15:39:30;26.40;99.90
9730;DHT22;4904;49.152;11.004;2022-07-29T15:41:57;26.40;99.90
9730;DHT22;4904;49.152;11.004;2022-07-29T15:44:24;26.30;99.90
9730;DHT22;4904;49.152;11.004;2022-07-29T15:46:51;26.30;99.90
9730;DHT22;4904;49.152;11.004;2022-07-29T15:49:35;26.30;99.90
9730;DHT22;4904;49.152;11.004;2022-07-29T15:52:04;26.20;99.90
9730;DHT22;4904;49.152;11.004;2022-07-29T15:54:33;26.00;99.90
9730;DHT22;4904;49.152;11.004;2022-07-29T15:57:00;25.50;99.90
9730;DHT22;4904;49.152;11.004;2022-07-29T15:59:27;25.30;99.90
9730;DHT22;4904;49.152;11.004;2022-07-29T16:01:54;25.10;99.90